Wildwood, California
Current Conditions -  °F | °C
As of 5:55 PM on Saturday 20 Dec 2014 (Local Time) from KO54 Reporting Station
Overcast Overcast  
Wind Chill: 46°   Ceiling: 200
Heat Index: 46°   Visibility: 1.2mi
Dew Point: 45°   Wind: 0mph
Humidity: 93%   Direction: NA
Pressure: 30.14"   Gusts: NA
Location:  40.2679°N, 122.919°W
Report Text: KO54 210155Z AUTO 00000KT 1 1/4SM OVC002 08/07 A3014 RMK AO1 P0008
Loading
Personal Weather Stations






























Interactive Weather Map New forecast layout! Learn more

10-Day Weather Forecast

Advertisements
Track Severe Weather on mobile